Time;durP1;ratioP1;P1;durP2;ratioP2;P2;SDS_P1;SDS_P2;PMS_P1;PMS_P2;Temp;Humidity;BMP_temperature;BMP_pressure;BME280_temperature;BME280_humidity;BME280_pressure;Samples;Min_cycle;Max_cycle;Signal;HPM_P1;HPM_P2
2022/10/02 00:00:42;;;;;;;7.03;6.42;;;;;;;17.58;86.40;100525.08;449510;116;922786;-77
2022/10/02 00:02:01;;;;;;;6.46;6.00;;;;;;;17.58;86.50;100516.81;449442;118;922968;-76
2022/10/02 00:03:20;;;;;;;7.71;6.97;;;;;;;17.57;86.44;100523.41;449520;118;922461;-77
2022/10/02 00:04:35;;;;;;;6.78;6.32;;;;;;;17.57;86.29;100528.93;449950;117;922709;-77
2022/10/02 00:05:44;;;;;;;6.87;6.36;;;;;;;17.55;86.21;100514.56;432536;122;922609;-77
2022/10/02 00:06:50;;;;;;;6.99;6.46;;;;;;;17.53;86.25;100520.33;447985;117;922206;-76
2022/10/02 00:08:08;;;;;;;6.84;6.19;;;;;;;17.53;86.26;100510.42;450636;118;922131;-76
2022/10/02 00:09:14;;;;;;;7.15;6.39;;;;;;;17.52;86.29;100515.10;450669;117;922172;-77
2022/10/02 00:10:24;;;;;;;7.05;6.41;;;;;;;17.53;86.23;100518.70;450158;117;922217;-78
2022/10/02 00:11:39;;;;;;;6.87;6.27;;;;;;;17.52;86.21;100515.10;449416;118;923355;-78
2022/10/02 00:12:44;;;;;;;6.71;6.26;;;;;;;17.51;86.41;100516.19;448471;118;922499;-78
2022/10/02 00:13:57;;;;;;;7.89;7.19;;;;;;;17.51;86.30;100507.92;449501;118;922586;-78
2022/10/02 00:15:04;;;;;;;6.84;6.27;;;;;;;17.50;86.28;100506.25;449465;118;922543;-78
2022/10/02 00:16:28;;;;;;;7.68;7.07;;;;;;;17.50;86.34;100500.73;449483;116;922662;-77
2022/10/02 00:17:35;;;;;;;6.75;6.23;;;;;;;17.50;86.28;100504.33;449420;118;922532;-77
2022/10/02 00:18:39;;;;;;;7.50;6.40;;;;;;;17.51;86.25;100502.41;449451;118;922515;-78
2022/10/02 00:19:42;;;;;;;6.81;6.21;;;;;;;17.50;86.17;100495.22;449524;118;923507;-78
2022/10/02 00:20:48;;;;;;;8.38;6.87;;;;;;;17.49;86.19;100499.06;449571;118;930468;-79
2022/10/02 00:22:30;;;;;;;7.89;7.26;;;;;;;17.49;86.09;100504.58;449016;117;923005;-79
2022/10/02 00:23:42;;;;;;;6.94;6.46;;;;;;;17.48;86.15;100495.48;448958;118;922969;-79
2022/10/02 00:24:58;;;;;;;7.86;7.22;;;;;;;17.47;86.03;100495.77;449406;117;923536;-78
2022/10/02 00:26:16;;;;;;;7.26;6.67;;;;;;;17.45;86.08;100495.19;449113;118;922499;-78
2022/10/02 00:27:26;;;;;;;7.57;6.96;;;;;;;17.44;86.14;100496.27;448803;118;923041;-79
2022/10/02 00:28:32;;;;;;;7.58;6.93;;;;;;;17.44;86.24;100490.75;449390;118;923464;-78
2022/10/02 00:29:51;;;;;;;7.46;6.81;;;;;;;17.44;86.23;100490.75;449417;117;922548;-78
2022/10/02 00:31:01;;;;;;;7.92;7.21;;;;;;;17.43;86.17;100502.88;453969;116;922986;-78
2022/10/02 00:32:10;;;;;;;7.08;6.55;;;;;;;17.42;86.05;100490.20;454082;116;922552;-78
2022/10/02 00:33:25;;;;;;;7.31;6.80;;;;;;;17.40;86.02;100490.46;453893;116;922603;-77
2022/10/02 00:34:41;;;;;;;7.24;6.74;;;;;;;17.40;86.02;100497.89;455255;116;922613;-79
2022/10/02 00:36:02;;;;;;;7.44;6.68;;;;;;;17.40;86.05;100484.11;456387;115;923033;-78
2022/10/02 00:37:15;;;;;;;7.59;6.97;;;;;;;17.39;86.01;100487.95;456828;116;923176;-78
2022/10/02 00:38:45;;;;;;;8.23;6.66;;;;;;;17.37;85.99;100485.45;456830;116;922640;-78
2022/10/02 00:40:07;;;;;;;7.77;6.86;;;;;;;17.37;85.98;100492.89;456176;116;922532;-77
2022/10/02 00:41:37;;;;;;;7.40;6.33;;;;;;;17.35;86.06;100493.17;456730;115;930559;-79
2022/10/02 00:42:52;;;;;;;7.18;6.58;;;;;;;17.34;85.99;100491.50;456236;116;922459;-78
2022/10/02 00:44:13;;;;;;;8.13;7.42;;;;;;;17.32;86.00;100488.16;456798;116;922618;-77
2022/10/02 00:45:23;;;;;;;;;;;;;;;17.31;86.01;100480.18;451857;118;922145;-79
2022/10/02 00:46:33;;;;;;;6.33;5.93;;;;;;;17.30;86.04;100482.10;449459;116;922948;-77
2022/10/02 00:48:04;;;;;;;7.91;7.28;;;;;;;17.28;86.11;100480.69;456785;116;923658;-78
2022/10/02 00:49:34;;;;;;;6.67;6.21;;;;;;;17.27;86.15;100479.85;440347;116;922904;-77
2022/10/02 00:50:58;;;;;;;7.08;6.52;;;;;;;17.25;86.13;100476.55;456836;116;922942;-76
2022/10/02 00:52:20;;;;;;;6.75;6.32;;;;;;;17.25;86.22;100478.47;455288;116;923213;-77
2022/10/02 00:53:39;;;;;;;7.02;6.42;;;;;;;17.25;86.23;100481.22;456466;115;922667;-77
2022/10/02 00:55:09;;;;;;;7.59;6.90;;;;;;;17.24;86.23;100479.55;456472;116;922459;-78
2022/10/02 00:56:31;;;;;;;;;;;;;;;17.24;86.43;100477.63;460440;115;922051;-77
2022/10/02 00:57:43;;;;;;;7.41;6.54;;;;;;;17.23;86.48;100475.97;456426;116;922608;-78
2022/10/02 00:59:06;;;;;;;6.88;6.31;;;;;;;17.23;86.42;100472.38;456487;116;922547;-77
2022/10/02 01:00:14;;;;;;;7.97;6.93;;;;;;;17.22;86.46;100471.54;456463;115;923342;-77
2022/10/02 01:01:24;;;;;;;7.13;6.27;;;;;;;17.21;86.46;100463.53;456402;116;922862;-78
2022/10/02 01:02:56;;;;;;;6.92;6.46;;;;;;;17.21;86.40;100463.53;456169;115;922970;-76
2022/10/02 01:04:02;;;;;;;7.50;6.91;;;;;;;17.21;86.45;100466.28;456398;116;922955;-79
2022/10/02 01:05:08;;;;;;;6.96;6.44;;;;;;;17.21;86.32;100474.55;456346;115;923002;-77
2022/10/02 01:06:11;;;;;;;8.14;6.97;;;;;;;17.19;86.31;100465.73;456386;116;922498;-77
2022/10/02 01:07:14;;;;;;;10.62;7.09;;;;;;;17.21;86.36;100464.36;456555;116;922509;-76
2022/10/02 01:08:18;;;;;;;6.84;6.29;;;;;;;17.22;86.47;100465.20;456604;115;923021;-77
2022/10/02 01:09:22;;;;;;;6.82;6.35;;;;;;;17.23;86.37;100461.35;456476;115;922978;-77
2022/10/02 01:10:26;;;;;;;6.88;6.37;;;;;;;17.23;86.31;100459.43;456424;116;923501;-77
2022/10/02 01:11:29;;;;;;;6.74;6.14;;;;;;;17.24;86.19;100460.27;456477;115;930614;-77
2022/10/02 01:12:32;;;;;;;7.10;6.32;;;;;;;17.25;86.25;100459.18;456512;115;922880;-78
2022/10/02 01:13:35;;;;;;;10.17;6.48;;;;;;;17.25;86.11;100454.50;456569;115;923482;-77
2022/10/02 01:14:39;;;;;;;7.96;7.28;;;;;;;17.26;86.17;100458.06;456571;115;922547;-78
2022/10/02 01:15:49;;;;;;;6.94;6.44;;;;;;;17.26;86.11;100463.57;454340;115;922959;-76
2022/10/02 01:16:52;;;;;;;7.09;6.53;;;;;;;17.26;85.95;100453.38;444139;118;923072;-77
2022/10/02 01:17:55;;;;;;;7.03;6.53;;;;;;;17.26;85.96;100455.30;448777;117;922491;-78
2022/10/02 01:18:58;;;;;;;7.16;6.56;;;;;;;17.26;86.04;100469.92;448706;117;922898;-77
2022/10/02 01:20:04;;;;;;;9.26;6.31;;;;;;;17.25;86.05;100454.50;448727;117;930486;-77
2022/10/02 01:21:20;;;;;;;7.03;6.30;;;;;;;17.27;86.05;100457.80;448590;118;922770;-79
2022/10/02 01:22:35;;;;;;;7.15;6.67;;;;;;;17.28;86.10;100458.64;448636;118;922624;-78
2022/10/02 01:24:07;;;;;;;6.16;5.76;;;;;;;17.28;86.04;100453.13;448561;118;922457;-79
2022/10/02 01:25:10;;;;;;;7.27;6.35;;;;;;;17.27;85.84;100451.46;448601;118;922584;-79
2022/10/02 01:26:13;;;;;;;6.94;6.34;;;;;;;17.25;85.75;100453.67;448719;116;922840;-77
2022/10/02 01:27:17;;;;;;;6.16;5.62;;;;;;;17.23;85.78;100448.41;446792;118;922469;-79
2022/10/02 01:28:21;;;;;;;7.39;6.72;;;;;;;17.23;85.97;100451.16;446774;118;923115;-78
2022/10/02 01:29:24;;;;;;;6.50;5.98;;;;;;;17.23;86.09;100448.41;446678;118;922529;-78
2022/10/02 01:30:29;;;;;;;6.31;5.88;;;;;;;17.24;86.04;100446.48;455781;116;923058;-77
2022/10/02 01:31:35;;;;;;;14.91;6.74;;;;;;;17.24;85.97;100452.84;451561;116;923154;-78
2022/10/02 01:32:44;;;;;;;7.23;6.73;;;;;;;17.24;85.97;100447.33;445421;119;922484;-78
2022/10/02 01:33:48;;;;;;;8.04;6.96;;;;;;;17.25;85.90;100445.40;447377;116;922527;-77
2022/10/02 01:34:53;;;;;;;7.48;6.58;;;;;;;17.24;85.93;100440.98;454589;116;922450;-78
2022/10/02 01:35:56;;;;;;;6.94;6.06;;;;;;;17.24;86.04;100440.98;454562;116;922990;-78
2022/10/02 01:36:59;;;;;;;7.69;6.96;;;;;;;17.25;86.11;100434.38;454720;116;922689;-78
2022/10/02 01:38:11;;;;;;;8.52;6.21;;;;;;;17.26;86.08;100438.77;454725;116;922512;-78
2022/10/02 01:39:14;;;;;;;7.87;6.76;;;;;;;17.26;85.99;100441.53;453986;116;923053;-78
2022/10/02 01:40:32;;;;;;;6.81;6.17;;;;;;;17.25;85.91;100429.70;454632;116;922888;-80
2022/10/02 01:41:39;;;;;;;6.33;5.89;;;;;;;17.25;85.85;100428.87;454508;116;922884;-78
2022/10/02 01:42:41;;;;;;;7.73;6.42;;;;;;;17.24;85.82;100421.69;454183;116;922489;-79
2022/10/02 01:43:57;;;;;;;6.58;5.96;;;;;;;17.23;85.74;100428.28;454723;116;922910;-78
2022/10/02 01:45:00;;;;;;;6.81;6.39;;;;;;;17.22;85.81;100430.21;454502;116;922508;-77
2022/10/02 01:46:12;;;;;;;6.20;5.76;;;;;;;17.22;85.88;100437.64;454664;116;922326;-78
2022/10/02 01:47:19;;;;;;;6.77;6.34;;;;;;;17.22;85.90;100423.86;454577;116;922548;-78
2022/10/02 01:48:28;;;;;;;6.74;6.20;;;;;;;17.21;86.00;100424.95;454029;116;923001;-77
2022/10/02 01:49:54;;;;;;;5.99;5.59;;;;;;;17.22;86.10;100427.45;454544;116;923062;-77
2022/10/02 01:51:17;;;;;;;6.85;6.37;;;;;;;17.23;86.01;100425.53;439019;120;923286;-77
2022/10/02 01:52:38;;;;;;;7.57;6.31;;;;;;;17.21;85.86;100422.20;455160;116;922698;-78
2022/10/02 01:53:51;;;;;;;6.57;5.94;;;;;;;17.20;85.83;100424.12;456307;116;923069;-78
2022/10/02 01:55:06;;;;;;;7.40;6.73;;;;;;;17.19;85.80;100421.64;456359;116;922965;-78
2022/10/02 01:56:29;;;;;;;6.96;6.46;;;;;;;17.17;85.90;100415.55;456325;116;922523;-79
2022/10/02 01:57:44;;;;;;;7.63;6.93;;;;;;;17.16;85.93;100417.48;455640;115;922557;-78
2022/10/02 01:58:51;;;;;;;6.82;6.14;;;;;;;17.16;86.05;100427.66;456186;115;923099;-78
2022/10/02 02:00:09;;;;;;;8.01;6.13;;;;;;;17.15;86.12;100417.73;455925;115;922631;-78
2022/10/02 02:01:27;;;;;;;6.88;5.72;;;;;;;17.16;86.19;100419.40;456324;116;923548;-78
2022/10/02 02:02:40;;;;;;;7.57;6.60;;;;;;;17.16;86.22;100419.40;456350;116;922889;-77
2022/10/02 02:04:01;;;;;;;7.32;6.71;;;;;;;17.15;86.16;100432.34;456338;116;922954;-78
2022/10/02 02:05:11;;;;;;;6.73;6.06;;;;;;;17.15;86.17;100431.50;456387;115;922484;-77
2022/10/02 02:06:18;;;;;;;7.28;6.66;;;;;;;17.13;86.03;100428.20;456290;115;922773;-78
2022/10/02 02:07:41;;;;;;;7.44;6.21;;;;;;;17.12;85.93;100432.05;458070;115;923346;-78
2022/10/02 02:08:51;;;;;;;7.18;6.52;;;;;;;17.10;85.83;100426.78;432039;122;923176;-77
2022/10/02 02:10:14;;;;;;;6.98;6.39;;;;;;;17.19;85.81;100421.64;477035;110;946926;-76
2022/10/02 02:11:19;;;;;;;6.83;6.13;;;;;;;17.07;85.84;100428.16;456994;115;922825;-76
2022/10/02 02:12:29;;;;;;;7.30;6.67;;;;;;;17.05;85.85;100433.08;457263;116;922981;-77
2022/10/02 02:13:38;;;;;;;7.09;6.47;;;;;;;17.04;85.89;100431.41;457288;115;923007;-78
2022/10/02 02:14:47;;;;;;;6.95;6.41;;;;;;;17.04;86.02;100430.58;456813;115;923104;-77
2022/10/02 02:16:08;;;;;;;6.80;6.18;;;;;;;17.04;85.97;100436.92;457051;114;922575;-77
2022/10/02 02:17:15;;;;;;;7.14;6.50;;;;;;;17.04;85.97;100436.09;457123;115;923023;-78
2022/10/02 02:18:30;;;;;;;6.68;6.12;;;;;;;17.05;86.03;100437.77;453985;115;923657;-78
2022/10/02 02:19:39;;;;;;;6.84;6.42;;;;;;;17.05;86.14;100435.00;457107;115;922595;-77
2022/10/02 02:20:46;;;;;;;7.43;6.82;;;;;;;17.06;86.05;100432.00;457085;114;923469;-78
2022/10/02 02:22:01;;;;;;;7.33;6.83;;;;;;;17.06;86.07;100429.24;457318;116;922508;-77
2022/10/02 02:23:07;;;;;;;6.95;6.32;;;;;;;17.06;86.09;100428.41;457260;116;922477;-77
2022/10/02 02:24:25;;;;;;;6.63;6.08;;;;;;;17.08;86.12;100426.23;457284;116;922534;-78
2022/10/02 02:25:32;;;;;;;7.16;6.49;;;;;;;17.08;86.13;100423.48;445638;114;923263;-78
2022/10/02 02:26:36;;;;;;;7.47;6.88;;;;;;;17.09;86.15;100428.70;457334;116;922587;-77
2022/10/02 02:27:43;;;;;;;6.85;6.28;;;;;;;17.10;86.23;100424.03;457381;115;922693;-79
2022/10/02 02:28:49;;;;;;;7.48;6.83;;;;;;;17.10;86.28;100429.54;457219;116;930561;-78
2022/10/02 02:29:56;;;;;;;8.14;6.21;;;;;;;17.12;86.25;100424.61;458241;115;922587;-79
2022/10/02 02:31:02;;;;;;;7.09;6.25;;;;;;;17.13;86.33;100426.28;460116;115;923082;-78
2022/10/02 02:32:08;;;;;;;6.74;6.20;;;;;;;17.15;86.28;100412.22;449489;118;922467;-78
2022/10/02 02:33:15;;;;;;;6.95;6.37;;;;;;;17.15;86.33;100417.73;449510;118;922511;-79
2022/10/02 02:34:36;;;;;;;6.94;6.39;;;;;;;17.16;86.30;100419.40;449463;114;922806;-77
2022/10/02 02:35:45;;;;;;;6.13;5.68;;;;;;;17.16;86.37;100417.48;449383;116;922536;-78
2022/10/02 02:36:52;;;;;;;7.42;6.72;;;;;;;17.18;86.30;100417.22;449443;118;923139;-78
2022/10/02 02:37:58;;;;;;;7.18;6.31;;;;;;;17.18;86.33;100408.96;448855;117;922530;-79
2022/10/02 02:39:05;;;;;;;6.58;5.82;;;;;;;17.19;86.41;100413.38;449379;117;923580;-77
2022/10/02 02:40:22;;;;;;;7.36;6.24;;;;;;;17.19;86.41;100405.95;449404;118;922666;-78
2022/10/02 02:41:28;;;;;;;6.45;5.89;;;;;;;17.22;86.45;100399.06;449448;118;922303;-77
2022/10/02 02:42:34;;;;;;;6.36;5.84;;;;;;;17.21;86.38;100403.74;449432;118;922968;-78
2022/10/02 02:43:44;;;;;;;6.21;5.71;;;;;;;17.21;86.39;100395.47;449482;118;923085;-78
2022/10/02 02:44:50;;;;;;;7.05;6.47;;;;;;;17.22;86.40;100401.82;449391;118;922617;-79
2022/10/02 02:45:59;;;;;;;6.49;6.02;;;;;;;17.22;86.34;100393.55;448934;116;922770;-79
2022/10/02 02:47:06;;;;;;;6.01;5.24;;;;;;;17.22;86.34;100394.39;449440;118;922738;-77
2022/10/02 02:48:35;;;;;;;6.14;5.41;;;;;;;17.22;86.37;100388.88;449309;117;922447;-77
2022/10/02 02:49:59;;;;;;;7.03;6.42;;;;;;;17.23;86.45;100396.05;449430;118;922786;-78
2022/10/02 02:51:19;;;;;;;6.39;5.67;;;;;;;17.34;86.42;100391.45;482340;110;946796;-77
2022/10/02 02:52:37;;;;;;;6.11;5.64;;;;;;;17.23;86.34;100396.05;473745;112;923351;-78
2022/10/02 02:53:54;;;;;;;7.02;6.34;;;;;;;17.33;86.46;100385.11;477077;110;946852;-77
2022/10/02 02:55:04;;;;;;;6.08;5.59;;;;;;;17.22;86.47;100388.88;465381;114;923050;-79
2022/10/02 02:56:10;;;;;;;6.58;5.98;;;;;;;17.22;86.56;100379.78;459037;113;922490;-78
2022/10/02 02:57:16;;;;;;;5.71;5.26;;;;;;;17.22;86.52;100380.61;457385;116;922508;-79
2022/10/02 02:58:34;;;;;;;6.57;6.09;;;;;;;17.22;86.53;100379.78;457339;116;922825;-77
2022/10/02 02:59:40;;;;;;;6.18;5.62;;;;;;;17.23;86.62;100373.18;456890;115;922555;-79
2022/10/02 03:00:43;;;;;;;6.44;5.93;;;;;;;17.23;86.59;100370.42;457319;116;922502;-78
2022/10/02 03:01:46;;;;;;;5.72;5.20;;;;;;;17.23;86.62;100373.18;457521;115;922550;-78
2022/10/02 03:02:53;;;;;;;6.05;5.59;;;;;;;17.24;86.59;100366.58;457484;115;922495;-78
2022/10/02 03:03:54;;;;;;;6.16;5.61;;;;;;;17.24;86.65;100363.82;457270;115;923115;-78
2022/10/02 03:04:57;;;;;;;6.20;5.64;;;;;;;17.25;86.68;100368.25;457494;115;922536;-78
2022/10/02 03:06:18;;;;;;;5.67;5.17;;;;;;;17.26;86.63;100361.61;457871;114;922395;-77
2022/10/02 03:07:21;;;;;;;6.68;5.91;;;;;;;17.26;86.62;100359.69;457073;116;922411;-79
2022/10/02 03:08:28;;;;;;;5.85;5.34;;;;;;;17.27;86.61;100361.36;458149;115;922498;-75
2022/10/02 03:09:32;;;;;;;6.38;5.78;;;;;;;17.26;86.68;100356.94;458186;116;922308;-75
2022/10/02 03:10:57;;;;;;;6.01;5.34;;;;;;;17.26;86.56;100364.38;458248;114;922020;-76
2022/10/02 03:12:03;;;;;;;5.96;5.40;;;;;;;17.26;86.54;100356.94;458235;116;930198;-77
2022/10/02 03:13:34;;;;;;;6.09;5.55;;;;;;;17.26;86.53;100351.42;457686;115;922719;-76
2022/10/02 03:15:10;;;;;;;8.65;5.82;;;;;;;17.27;86.57;100349.50;456883;115;922979;-77
2022/10/02 03:16:33;;;;;;;6.14;5.71;;;;;;;17.27;86.58;100352.26;457904;114;922256;-77
2022/10/02 03:18:01;;;;;;;6.88;5.70;;;;;;;17.24;86.62;100339.02;458167;116;922793;-77
2022/10/02 03:19:28;;;;;;;6.76;6.24;;;;;;;17.24;86.73;100342.61;457615;116;922777;-79
2022/10/02 03:20:44;;;;;;;7.25;6.20;;;;;;;17.22;86.64;100342.03;458172;114;922201;-76
2022/10/02 03:22:23;;;;;;;6.01;5.43;;;;;;;17.22;86.73;100344.79;457773;115;922383;-76
2022/10/02 03:23:47;;;;;;;8.35;6.09;;;;;;;17.21;86.68;100331.27;457867;116;922469;-76
2022/10/02 03:25:00;;;;;;;6.24;5.54;;;;;;;17.19;86.71;100323.29;458280;116;922211;-76
2022/10/02 03:26:09;;;;;;;7.03;6.41;;;;;;;17.19;86.74;100326.05;457243;114;922260;-77
2022/10/02 03:27:15;;;;;;;7.31;6.30;;;;;;;17.18;86.75;100324.38;458276;116;922126;-77
2022/10/02 03:28:28;;;;;;;5.61;5.12;;;;;;;17.18;86.72;100324.38;458242;116;922186;-77
2022/10/02 03:29:39;;;;;;;6.20;5.68;;;;;;;17.18;86.78;100324.38;455956;115;922136;-76
2022/10/02 03:30:44;;;;;;;6.94;6.18;;;;;;;17.18;86.76;100321.63;460636;115;922097;-77
2022/10/02 03:31:48;;;;;;;7.53;5.91;;;;;;;17.18;86.73;100320.79;459087;115;922061;-78
2022/10/02 03:32:52;;;;;;;6.84;5.57;;;;;;;17.19;86.71;100327.97;458219;115;922091;-77
2022/10/02 03:33:58;;;;;;;6.91;6.34;;;;;;;17.18;86.61;100321.63;461466;113;930110;-77
2022/10/02 03:35:03;;;;;;;7.21;6.61;;;;;;;17.17;86.52;100325.47;467328;113;922887;-78
2022/10/02 03:36:08;;;;;;;7.50;6.52;;;;;;;17.18;86.50;100320.79;467376;113;921981;-77
2022/10/02 03:37:11;;;;;;;6.29;5.76;;;;;;;17.18;86.58;100315.28;467423;113;922721;-77
2022/10/02 03:38:15;;;;;;;6.84;6.09;;;;;;;17.19;86.64;100320.53;467430;113;930395;-77
2022/10/02 03:39:18;;;;;;;6.18;5.68;;;;;;;17.20;86.67;100318.61;467486;113;922385;-76
2022/10/02 03:40:24;;;;;;;6.32;5.78;;;;;;;17.21;86.72;100320.25;466553;113;922121;-77
2022/10/02 03:41:27;;;;;;;6.85;6.26;;;;;;;17.22;86.60;100321.91;467354;113;922154;-77
2022/10/02 03:42:33;;;;;;;7.10;6.56;;;;;;;17.21;86.60;100312.81;467539;113;930276;-78
2022/10/02 03:43:37;;;;;;;7.11;6.51;;;;;;;17.22;86.62;100311.73;467325;113;922323;-77
2022/10/02 03:44:40;;;;;;;7.39;6.01;;;;;;;17.23;86.56;100307.05;467559;113;922242;-76
2022/10/02 03:45:43;;;;;;;6.58;6.06;;;;;;;17.23;86.55;100301.54;467484;113;922587;-76
2022/10/02 03:46:48;;;;;;;7.11;6.45;;;;;;;17.22;86.54;100302.63;466545;113;922107;-77
2022/10/02 03:47:51;;;;;;;6.64;6.06;;;;;;;17.23;86.57;100296.03;467573;113;922105;-76
2022/10/02 03:48:55;;;;;;;6.38;5.89;;;;;;;17.22;86.49;100294.36;467462;113;922711;-78
2022/10/02 03:49:58;;;;;;;6.91;6.34;;;;;;;17.22;86.57;100291.61;466963;113;922907;-77
2022/10/02 03:51:01;;;;;;;6.62;6.17;;;;;;;17.20;86.68;100286.35;466660;113;923047;-78
2022/10/02 03:52:04;;;;;;;6.12;5.44;;;;;;;17.21;86.66;100282.51;465344;113;922456;-78
2022/10/02 03:53:15;;;;;;;6.41;5.92;;;;;;;17.22;86.76;100284.17;455754;116;922537;-79
2022/10/02 03:54:20;;;;;;;7.03;6.44;;;;;;;17.23;86.79;100279.50;455587;116;922501;-79
2022/10/02 03:55:33;;;;;;;6.19;5.74;;;;;;;17.24;86.82;100275.65;455551;116;923251;-77
2022/10/02 03:56:40;;;;;;;6.49;5.91;;;;;;;17.25;86.83;100274.56;455583;116;922984;-78
2022/10/02 03:57:45;;;;;;;6.39;5.88;;;;;;;17.25;86.72;100274.56;454751;116;923214;-79
2022/10/02 03:58:51;;;;;;;6.07;5.56;;;;;;;17.25;86.70;100271.80;446184;118;922708;-78
2022/10/02 04:00:08;;;;;;;6.24;5.71;;;;;;;17.25;86.74;100263.54;447485;116;923209;-78
2022/10/02 04:01:20;;;;;;;6.18;5.74;;;;;;;17.26;86.73;100266.00;447536;116;922722;-81
2022/10/02 04:02:33;;;;;;;6.79;6.23;;;;;;;17.27;86.72;100266.84;452366;116;922526;-78
2022/10/02 04:03:39;;;;;;;6.32;5.92;;;;;;;17.28;86.79;100271.26;455559;116;922398;-76
2022/10/02 04:04:49;;;;;;;6.81;6.26;;;;;;;17.28;86.80;100268.50;455304;116;922453;-77
2022/10/02 04:06:04;;;;;;;6.59;6.06;;;;;;;17.28;86.88;100266.58;454942;114;922765;-77
2022/10/02 04:07:10;;;;;;;6.76;6.09;;;;;;;17.30;86.75;100263.56;455487;116;922699;-79
2022/10/02 04:08:17;;;;;;;6.41;5.91;;;;;;;17.31;86.83;100265.23;455131;116;922541;-78
2022/10/02 04:09:26;;;;;;;6.38;5.86;;;;;;;17.30;86.83;100264.39;455434;116;922600;-77
2022/10/02 04:10:55;;;;;;;6.60;6.04;;;;;;;17.31;86.82;100266.03;455479;116;922631;-78
2022/10/02 04:12:02;;;;;;;6.93;6.39;;;;;;;17.32;86.72;100255.84;455287;116;922641;-78
2022/10/02 04:13:15;;;;;;;7.60;7.00;;;;;;;17.32;86.72;100261.35;455490;116;923088;-77
2022/10/02 04:14:21;;;;;;;7.16;6.66;;;;;;;17.32;86.71;100266.86;455443;116;922504;-77
2022/10/02 04:15:46;;;;;;;7.35;6.75;;;;;;;17.32;86.79;100259.43;453246;116;922606;-78
2022/10/02 04:17:05;;;;;;;7.44;6.66;;;;;;;17.33;86.78;100260.27;453034;117;922597;-78
2022/10/02 04:18:11;;;;;;;7.33;6.75;;;;;;;17.34;86.76;100260.00;453576;117;922546;-77
2022/10/02 04:19:26;;;;;;;8.38;7.67;;;;;;;17.34;86.77;100250.91;453079;117;922613;-79
2022/10/02 04:20:45;;;;;;;8.84;7.92;;;;;;;17.35;86.77;100260.84;435230;115;923580;-77
2022/10/02 04:22:00;;;;;;;7.91;7.33;;;;;;;17.35;86.76;100256.16;453210;117;922955;-79
2022/10/02 04:23:21;;;;;;;9.95;8.24;;;;;;;17.36;86.79;100260.58;453578;117;922576;-76
2022/10/02 04:24:49;;;;;;;8.87;8.08;;;;;;;17.36;86.88;100268.02;453523;117;922617;-78
2022/10/02 04:25:55;;;;;;;9.58;8.77;;;;;;;17.36;86.80;100271.60;453620;115;922625;-78
2022/10/02 04:27:11;;;;;;;9.88;9.05;;;;;;;17.36;86.71;100268.02;453159;117;922570;-77
2022/10/02 04:28:17;;;;;;;9.19;8.49;;;;;;;17.36;86.70;100268.84;453635;117;923040;-78
2022/10/02 04:29:24;;;;;;;9.59;8.88;;;;;;;17.36;86.76;100263.33;453539;117;923130;-78
2022/10/02 04:30:29;;;;;;;9.53;8.74;;;;;;;17.38;86.82;100268.55;453929;115;922929;-78
2022/10/02 04:31:31;;;;;;;10.95;10.05;;;;;;;17.39;86.90;100270.22;455360;116;922363;-78
2022/10/02 04:32:35;;;;;;;9.63;8.95;;;;;;;17.40;86.89;100272.72;457441;115;922841;-79
2022/10/02 04:33:39;;;;;;;11.32;10.28;;;;;;;17.42;86.83;100264.19;458045;113;922825;-77
2022/10/02 04:34:42;;;;;;;11.53;10.66;;;;;;;17.42;86.90;100262.23;466484;113;922375;-78
2022/10/02 04:36:22;;;;;;;11.74;10.81;;;;;;;17.44;87.00;100264.73;466344;113;922470;-78
2022/10/02 04:37:37;;;;;;;11.61;10.56;;;;;;;17.45;86.96;100267.23;466206;113;922516;-77
2022/10/02 04:38:46;;;;;;;11.86;10.65;;;;;;;17.48;86.92;100271.36;465418;113;922802;-77
2022/10/02 04:39:55;;;;;;;11.64;10.76;;;;;;;17.47;86.88;100276.08;465464;113;923178;-77
2022/10/02 04:41:13;;;;;;;12.05;11.15;;;;;;;17.49;86.93;100273.03;464657;113;923218;-78
2022/10/02 04:42:47;;;;;;;13.06;11.96;;;;;;;17.49;86.93;100270.27;454758;113;922635;-77
2022/10/02 04:44:12;;;;;;;14.68;13.38;;;;;;;17.50;86.88;100269.17;466311;113;923047;-79
2022/10/02 04:45:33;;;;;;;14.97;13.81;;;;;;;17.51;86.86;100266.16;442809;119;922811;-78
2022/10/02 04:46:43;;;;;;;17.39;15.72;;;;;;;17.51;86.95;100274.44;465355;113;923410;-77
2022/10/02 04:48:16;;;;;;;16.19;14.58;;;;;;;17.53;87.04;100276.93;466377;113;922521;-78
2022/10/02 04:49:28;;;;;;;16.75;15.46;;;;;;;17.54;87.01;100275.80;441598;119;923041;-77
2022/10/02 04:50:49;;;;;;;18.01;16.52;;;;;;;17.55;87.00;100282.16;441608;120;922648;-78
2022/10/02 04:52:11;;;;;;;18.38;16.63;;;;;;;17.55;87.00;100277.47;466371;113;922468;-78
2022/10/02 04:53:49;;;;;;;16.58;15.35;;;;;;;17.56;87.14;100278.30;448759;117;922771;-77
2022/10/02 04:55:12;;;;;;;17.84;16.36;;;;;;;17.56;87.12;100270.87;449514;118;922857;-76
2022/10/02 04:56:19;;;;;;;18.21;16.81;;;;;;;17.58;87.30;100273.36;450410;116;922546;-76
2022/10/02 04:57:51;;;;;;;18.05;16.49;;;;;;;17.59;87.36;100273.07;450402;118;923029;-76
2022/10/02 04:59:16;;;;;;;19.12;17.70;;;;;;;17.60;87.39;100273.94;450451;118;922292;-75
2022/10/02 05:00:20;;;;;;;19.87;18.14;;;;;;;17.62;87.42;100269.00;450402;118;922289;-78
2022/10/02 05:01:27;;;;;;;21.16;19.49;;;;;;;17.63;87.34;100273.42;450126;117;922330;-80
2022/10/02 05:02:49;;;;;;;20.33;18.72;;;;;;;17.65;87.35;100268.45;447159;118;922521;-76
2022/10/02 05:04:01;;;;;;;20.35;18.58;;;;;;;17.66;87.39;100270.94;449357;117;922528;-78
2022/10/02 05:05:21;;;;;;;20.99;19.14;;;;;;;17.69;87.49;100272.34;449334;118;922865;-76
2022/10/02 05:06:43;;;;;;;20.51;18.82;;;;;;;17.70;87.37;100272.05;449223;117;922520;-77
2022/10/02 05:08:01;;;;;;;20.52;18.97;;;;;;;17.73;87.34;100273.46;446968;118;923038;-78
2022/10/02 05:09:30;;;;;;;21.13;19.36;;;;;;;17.74;87.41;100275.13;448364;117;923517;-78
2022/10/02 05:11:10;;;;;;;20.73;19.16;;;;;;;17.76;87.47;100276.50;448969;117;922935;-78
2022/10/02 05:12:22;;;;;;;21.37;19.74;;;;;;;17.78;87.37;100271.55;457098;116;922473;-77
2022/10/02 05:13:35;;;;;;;21.63;19.87;;;;;;;17.80;87.40;100263.84;456633;115;923505;-78
2022/10/02 05:14:47;;;;;;;21.40;19.73;;;;;;;17.82;87.38;100264.39;457177;116;923216;-78
2022/10/02 05:15:53;;;;;;;22.53;20.68;;;;;;;17.83;87.43;100266.05;447608;117;922784;-79
2022/10/02 05:17:00;;;;;;;21.86;20.12;;;;;;;17.85;87.39;100261.11;445761;118;923005;-77
2022/10/02 05:18:12;;;;;;;23.70;21.22;;;;;;;17.87;87.48;100253.38;448420;116;922651;-78
2022/10/02 05:19:37;;;;;;;23.17;21.12;;;;;;;17.90;87.52;100260.29;457262;114;922954;-78
2022/10/02 05:20:49;;;;;;;22.64;20.87;;;;;;;17.92;87.50;100266.34;457037;116;922835;-79
2022/10/02 05:22:12;;;;;;;23.62;21.63;;;;;;;17.95;87.41;100254.78;457042;116;923016;-79
2022/10/02 05:23:27;;;;;;;22.21;20.43;;;;;;;17.97;87.39;100255.36;456986;116;922967;-79
2022/10/02 05:24:55;;;;;;;24.11;21.68;;;;;;;18.00;87.45;100262.24;446551;118;922681;-78
2022/10/02 05:26:30;;;;;;;24.34;21.73;;;;;;;18.01;87.44;100263.91;457000;116;922506;-79
2022/10/02 05:27:46;;;;;;;23.88;21.94;;;;;;;18.02;87.41;100263.64;456624;116;922587;-79
2022/10/02 05:29:20;;;;;;;22.89;21.08;;;;;;;18.03;87.39;100256.20;437404;121;922973;-80
2022/10/02 05:30:24;;;;;;;23.88;22.01;;;;;;;18.03;87.41;100262.52;453321;116;922486;-77
2022/10/02 05:31:42;;;;;;;24.62;22.34;;;;;;;18.03;87.29;100259.77;445573;118;922971;-78
2022/10/02 05:33:13;;;;;;;25.30;23.04;;;;;;;18.03;87.32;100250.68;457160;116;922990;-79